Time;durP1;ratioP1;P1;durP2;ratioP2;P2;SDS_P1;SDS_P2;PMS_P1;PMS_P2;Temp;Humidity;BMP_temperature;BMP_pressure;BME280_temperature;BME280_humidity;BME280_pressure;Samples;Min_cycle;Max_cycle;Signal;HPM_P1;HPM_P2
2022/07/13 00:00:13;;;;;;;1.00;0.77;;;15.80;99.90;;;;;;8307775;28;20205;-65
2022/07/13 00:04:14;;;;;;;2.37;1.10;;;15.70;99.90;;;;;;8310772;28;20194;-67
2022/07/13 00:08:15;;;;;;;1.20;0.90;;;15.80;99.90;;;;;;8311143;28;20260;-64
2022/07/13 00:12:16;;;;;;;1.40;1.10;;;15.70;99.90;;;;;;8310193;28;20222;-64
2022/07/13 00:16:17;;;;;;;1.97;0.97;;;15.60;99.90;;;;;;8308343;28;20218;-63
2022/07/13 00:20:18;;;;;;;1.77;1.03;;;15.50;99.90;;;;;;8310090;28;20195;-62
2022/07/13 00:24:18;;;;;;;1.90;0.80;;;15.40;99.90;;;;;;8304192;28;20205;-62
2022/07/13 00:28:19;;;;;;;1.83;0.80;;;15.20;99.90;;;;;;8305487;28;20213;-64
2022/07/13 00:32:20;;;;;;;1.20;0.90;;;15.20;99.90;;;;;;8307569;28;20195;-63
2022/07/13 00:36:21;;;;;;;1.53;1.00;;;15.20;99.90;;;;;;8303363;28;20222;-64
2022/07/13 00:40:22;;;;;;;1.53;0.83;;;15.20;99.90;;;;;;8315224;28;20195;-63
2022/07/13 00:44:22;;;;;;;1.43;0.90;;;15.00;99.90;;;;;;8305655;28;20194;-64
2022/07/13 00:48:23;;;;;;;3.50;1.37;;;14.90;99.90;;;;;;8311889;28;20194;-63
2022/07/13 00:52:24;;;;;;;1.57;0.80;;;14.90;99.90;;;;;;8308829;28;20234;-63
2022/07/13 00:56:27;;;;;;;1.17;0.80;;;14.80;99.90;;;;;;8336269;28;20219;-64
2022/07/13 01:00:27;;;;;;;1.93;1.00;;;14.80;99.90;;;;;;8342510;28;20197;-62
2022/07/13 01:04:28;;;;;;;1.43;1.00;;;14.70;99.90;;;;;;8335478;28;20222;-63
2022/07/13 01:08:30;;;;;;;2.90;0.90;;;14.70;99.90;;;;;;8308226;28;20208;-63
2022/07/13 01:12:31;;;;;;;1.40;1.00;;;14.60;1.00;;;;;;8305116;28;20195;-62
2022/07/13 01:16:33;;;;;;;1.20;1.10;;;14.50;1.00;;;;;;8339595;28;20218;-63
2022/07/13 01:20:34;;;;;;;1.83;1.23;;;14.50;1.00;;;;;;8305349;28;20191;-62
2022/07/13 01:24:35;;;;;;;1.73;0.80;;;14.40;1.00;;;;;;8304452;28;20234;-62
2022/07/13 01:28:36;;;;;;;2.30;0.90;;;14.30;1.00;;;;;;8307276;28;20195;-64
2022/07/13 01:32:45;;;;;;;1.33;0.80;;;14.30;1.00;;;;;;8301077;28;20186;-63
2022/07/13 01:36:46;;;;;;;1.63;0.87;;;14.20;1.00;;;;;;8303825;28;20215;-63
2022/07/13 01:40:47;;;;;;;2.17;1.10;;;14.30;1.00;;;;;;8336734;28;20187;-63
2022/07/13 01:44:48;;;;;;;1.23;1.00;;;14.40;1.00;;;;;;8304754;28;20193;-63
2022/07/13 01:48:49;;;;;;;2.33;0.90;;;14.40;1.00;;;;;;8306889;28;20210;-64
2022/07/13 01:52:50;;;;;;;1.67;0.90;;;14.40;1.00;;;;;;8308088;28;20222;-62
2022/07/13 01:56:51;;;;;;;1.33;1.10;;;14.40;1.00;;;;;;8308593;28;20315;-68
2022/07/13 02:00:53;;;;;;;2.67;1.33;;;14.30;1.00;;;;;;8340343;28;20214;-63
2022/07/13 02:04:57;;;;;;;1.67;0.80;;;14.30;1.00;;;;;;8306458;28;20279;-62
2022/07/13 02:08:57;;;;;;;1.33;0.97;;;14.30;1.00;;;;;;8307985;28;20198;-63
2022/07/13 02:12:58;;;;;;;1.87;1.10;;;14.20;1.00;;;;;;8342796;28;20193;-62
2022/07/13 02:16:59;;;;;;;2.10;0.90;;;14.20;1.00;;;;;;8346254;28;20218;-62
2022/07/13 02:21:00;;;;;;;3.80;1.03;;;14.20;1.00;;;;;;8311979;28;20221;-63
2022/07/13 02:25:00;;;;;;;3.43;1.00;;;14.30;1.00;;;;;;8312312;28;20332;-67
2022/07/13 02:29:01;;;;;;;2.80;1.60;;;14.40;1.00;;;;;;8312978;28;20191;-72
2022/07/13 02:33:02;;;;;;;5.27;1.30;;;14.40;1.00;;;;;;8314808;28;20242;-62
2022/07/13 02:37:03;;;;;;;3.50;1.50;;;14.40;1.00;;;;;;8309192;28;20210;-63
2022/07/13 02:41:04;;;;;;;2.03;1.30;;;14.40;1.00;;;;;;8313150;28;20198;-64
2022/07/13 02:45:06;;;;;;;3.40;1.13;;;14.40;1.00;;;;;;8312186;28;20260;-62
2022/07/13 02:49:07;;;;;;;1.10;1.00;;;14.40;1.00;;;;;;8315848;28;20186;-62
2022/07/13 02:53:08;;;;;;;2.73;1.20;;;14.30;1.00;;;;;;8310593;28;20229;-62
2022/07/13 02:57:09;;;;;;;1.53;0.90;;;14.30;1.00;;;;;;8311842;28;20252;-62
2022/07/13 03:01:09;;;;;;;1.93;1.13;;;14.10;1.00;;;;;;8348400;28;20201;-61
2022/07/13 03:05:10;;;;;;;2.00;1.03;;;14.10;1.00;;;;;;8338076;28;20194;-66
2022/07/13 03:09:11;;;;;;;1.70;1.13;;;14.00;37.80;;;;;;8317004;28;20203;-62
2022/07/13 03:13:12;;;;;;;1.27;1.10;;;14.00;80.00;;;;;;8341101;28;20209;-63
2022/07/13 03:17:12;;;;;;;1.73;1.03;;;14.00;73.80;;;;;;8344027;28;20218;-62
2022/07/13 03:21:13;;;;;;;4.20;1.33;;;14.10;63.10;;;;;;8309775;28;20191;-62
2022/07/13 03:25:14;;;;;;;3.80;1.30;;;14.30;20.10;;;;;;8309314;28;20198;-62
2022/07/13 03:29:15;;;;;;;1.47;0.93;;;14.40;4.20;;;;;;8343318;28;20194;-68
2022/07/13 03:33:15;;;;;;;2.63;1.00;;;14.40;1.00;;;;;;8307091;28;20199;-62
2022/07/13 03:37:16;;;;;;;3.70;1.10;;;14.60;1.00;;;;;;8314687;28;20190;-63
2022/07/13 03:41:17;;;;;;;1.40;1.10;;;14.60;1.00;;;;;;8341519;28;20194;-63
2022/07/13 03:45:18;;;;;;;2.30;1.07;;;14.70;1.00;;;;;;8313237;28;20449;-63
2022/07/13 03:49:19;;;;;;;4.10;1.03;;;14.70;1.00;;;;;;8341124;28;20183;-62
2022/07/13 03:53:19;;;;;;;1.70;1.10;;;14.80;1.00;;;;;;8309906;28;20210;-61
2022/07/13 03:57:20;;;;;;;2.77;1.27;;;14.80;1.00;;;;;;8309477;28;20191;-62
2022/07/13 04:01:21;;;;;;;1.70;1.07;;;14.90;1.00;;;;;;8312321;28;20194;-62
2022/07/13 04:05:22;;;;;;;3.60;1.10;;;15.00;1.00;;;;;;8336169;28;20217;-62
2022/07/13 04:09:23;;;;;;;1.30;1.17;;;15.00;1.00;;;;;;8304373;28;20326;-63
2022/07/13 04:13:24;;;;;;;3.90;1.43;;;15.10;1.00;;;;;;8346232;28;20190;-64
2022/07/13 04:17:24;;;;;;;3.03;1.40;;;15.10;1.00;;;;;;8305257;28;20190;-65
2022/07/13 04:21:25;;;;;;;1.80;0.90;;;15.30;1.00;;;;;;8308478;28;20195;-62
2022/07/13 04:25:26;;;;;;;2.73;1.37;;;15.40;1.00;;;;;;8310344;28;20202;-62
2022/07/13 04:29:27;;;;;;;3.33;1.10;;;15.60;1.00;;;;;;8305045;28;20329;-63
2022/07/13 04:33:27;;;;;;;1.17;0.90;;;15.70;1.00;;;;;;8306246;28;20195;-68
2022/07/13 04:37:28;;;;;;;3.80;1.10;;;15.90;99.90;;;;;;8337714;28;20182;-65
2022/07/13 04:41:29;;;;;;;4.17;1.17;;;16.00;99.90;;;;;;8305954;28;20190;-62
2022/07/13 04:45:32;;;;;;;1.93;0.90;;;16.20;99.90;;;;;;8312148;28;20229;-63
2022/07/13 04:49:32;;;;;;;3.83;1.30;;;16.50;99.90;;;;;;8303985;28;20653;-63
2022/07/13 04:53:33;;;;;;;5.57;1.33;;;16.70;99.90;;;;;;8342685;28;20218;-63
2022/07/13 04:57:34;;;;;;;2.13;1.30;;;16.80;99.90;;;;;;8300932;28;20228;-63
2022/07/13 05:01:35;;;;;;;0.90;0.80;;;16.80;99.90;;;;;;8304473;28;20218;-63
2022/07/13 05:05:35;;;;;;;2.07;1.10;;;16.90;99.90;;;;;;8306120;28;20198;-65
2022/07/13 05:09:36;;;;;;;2.83;1.00;;;17.20;99.90;;;;;;8303839;28;20214;-64
2022/07/13 05:13:37;;;;;;;2.60;0.90;;;17.90;99.90;;;;;;8303675;28;20306;-65
2022/07/13 05:17:38;;;;;;;3.17;1.00;;;18.20;99.90;;;;;;8306763;28;20186;-71
2022/07/13 05:21:39;;;;;;;2.30;0.70;;;18.70;99.90;;;;;;8304401;28;20190;-64
2022/07/13 05:25:39;;;;;;;1.10;1.00;;;19.40;94.30;;;;;;8333932;28;20186;-65
2022/07/13 05:29:40;;;;;;;2.13;0.97;;;20.10;22.70;;;;;;8303157;28;20205;-63
2022/07/13 05:33:41;;;;;;;1.10;1.00;;;20.40;1.00;;;;;;8304974;28;20286;-64
2022/07/13 05:37:42;;;;;;;1.13;0.73;;;20.50;1.00;;;;;;8303966;28;20254;-64
2022/07/13 05:41:42;;;;;;;2.57;0.80;;;20.90;1.00;;;;;;8334917;28;20186;-66
2022/07/13 05:45:43;;;;;;;2.10;0.83;;;21.00;1.00;;;;;;8307625;28;20198;-63
2022/07/13 05:49:44;;;;;;;1.67;1.10;;;20.90;1.00;;;;;;8338621;28;20247;-62
2022/07/13 05:53:45;;;;;;;1.67;0.70;;;21.10;1.00;;;;;;8305753;28;20215;-61
2022/07/13 05:57:46;;;;;;;2.30;0.70;;;21.50;1.00;;;;;;8305389;28;20186;-61
2022/07/13 06:01:47;;;;;;;3.70;0.90;;;21.60;1.00;;;;;;8314357;28;20197;-66
2022/07/13 06:05:48;;;;;;;3.67;0.80;;;21.90;1.00;;;;;;8310911;28;20316;-62
2022/07/13 06:09:49;;;;;;;1.43;0.60;;;21.70;1.00;;;;;;8312108;28;20203;-62
2022/07/13 06:13:50;;;;;;;0.90;0.70;;;21.90;1.00;;;;;;8309226;28;20203;-68
2022/07/13 06:17:50;;;;;;;1.63;0.70;;;22.20;1.00;;;;;;8317105;28;20447;-62
2022/07/13 06:21:53;;;;;;;2.00;0.90;;;22.20;1.00;;;;;;8307055;28;21376;-66
2022/07/13 06:25:54;;;;;;;3.23;0.97;;;22.50;1.00;;;;;;8310027;28;20201;-63
2022/07/13 06:29:55;;;;;;;3.67;0.97;;;22.80;1.00;;;;;;8337819;28;20607;-63
2022/07/13 06:33:56;;;;;;;1.07;0.70;;;22.80;1.00;;;;;;8311267;28;20238;-66
2022/07/13 06:37:58;;;;;;;1.03;0.93;;;22.70;1.00;;;;;;8316471;28;20178;-65
2022/07/13 06:41:58;;;;;;;3.93;0.90;;;22.30;1.00;;;;;;8315507;28;20286;-63
2022/07/13 06:46:00;;;;;;;0.90;0.80;;;22.20;1.00;;;;;;8316639;28;20246;-67
2022/07/13 06:50:01;;;;;;;1.83;0.80;;;22.20;1.00;;;;;;8313349;28;20458;-68
2022/07/13 06:54:02;;;;;;;1.43;0.97;;;21.90;1.00;;;;;;8344180;28;20253;-64
2022/07/13 06:58:03;;;;;;;0.73;0.60;;;21.90;1.00;;;;;;8315313;28;20243;-65
2022/07/13 07:02:04;;;;;;;0.80;0.60;;;22.10;1.00;;;;;;8314032;28;20244;-67
2022/07/13 07:06:05;;;;;;;1.87;0.97;;;22.20;1.00;;;;;;8341651;28;20198;-66
2022/07/13 07:10:07;;;;;;;2.00;1.00;;;22.40;1.00;;;;;;8312556;28;20187;-64
2022/07/13 07:14:08;;;;;;;2.60;0.70;;;22.40;1.00;;;;;;8308124;28;20638;-68
2022/07/13 07:18:09;;;;;;;1.37;0.63;;;22.50;1.00;;;;;;8311621;28;20486;-67
2022/07/13 07:22:11;;;;;;;1.63;0.67;;;22.70;1.00;;;;;;8322614;28;20217;-65
2022/07/13 07:26:12;;;;;;;1.30;0.83;;;22.70;1.00;;;;;;8307200;28;20183;-66
2022/07/13 07:30:13;;;;;;;1.53;0.67;;;22.70;1.00;;;;;;8302276;28;20198;-66
2022/07/13 07:34:14;;;;;;;3.67;0.97;;;22.80;1.00;;;;;;8300824;28;20230;-66
2022/07/13 07:38:15;;;;;;;1.00;0.70;;;22.90;1.00;;;;;;8330378;28;20195;-65
2022/07/13 07:42:17;;;;;;;0.70;0.70;;;23.00;1.00;;;;;;8306288;28;20195;-67
2022/07/13 07:46:17;;;;;;;1.30;0.83;;;23.10;1.00;;;;;;8308422;28;20206;-67
2022/07/13 07:50:19;;;;;;;1.30;0.70;;;23.00;1.00;;;;;;8308375;28;20297;-64
2022/07/13 07:54:20;;;;;;;1.87;0.70;;;23.20;1.00;;;;;;8302898;28;20214;-66
2022/07/13 07:58:20;;;;;;;3.20;0.63;;;23.60;1.00;;;;;;8305919;28;20270;-65
2022/07/13 08:02:21;;;;;;;1.70;0.77;;;23.80;1.00;;;;;;8303264;28;20194;-66
2022/07/13 08:06:22;;;;;;;1.13;0.80;;;24.00;1.00;;;;;;8304360;28;20237;-66
2022/07/13 08:10:23;;;;;;;1.33;0.73;;;24.30;1.00;;;;;;8336424;28;20190;-67
2022/07/13 08:14:24;;;;;;;2.43;0.70;;;24.30;1.00;;;;;;8306312;28;20223;-66
2022/07/13 08:18:25;;;;;;;2.43;0.73;;;24.30;1.00;;;;;;8300549;28;20218;-65
2022/07/13 08:22:26;;;;;;;0.93;0.70;;;24.50;1.00;;;;;;8300125;28;20216;-66
2022/07/13 08:26:28;;;;;;;1.23;0.73;;;24.60;1.00;;;;;;8305278;28;20205;-67
2022/07/13 08:30:29;;;;;;;0.83;0.50;;;24.60;1.00;;;;;;8334326;28;20195;-66
2022/07/13 08:38:49;;;;;;;2.20;0.60;;;25.10;1.00;;;;;;8297852;28;20197;-65
2022/07/13 08:42:50;;;;;;;2.60;0.70;;;25.50;1.00;;;;;;8308030;28;20187;-67
2022/07/13 08:46:51;;;;;;;2.70;0.60;;;25.60;1.00;;;;;;8300419;28;20214;-66
2022/07/13 08:50:53;;;;;;;2.37;0.80;;;25.40;1.00;;;;;;8301971;28;20221;-66
2022/07/13 08:54:54;;;;;;;1.43;0.70;;;25.40;1.00;;;;;;8298212;28;20272;-67
2022/07/13 08:58:55;;;;;;;1.60;0.60;;;25.50;1.00;;;;;;8308953;28;20309;-65
2022/07/13 09:02:56;;;;;;;2.15;0.50;;;25.70;1.00;;;;;;8300335;28;20175;-69
2022/07/13 09:06:58;;;;;;;1.33;0.50;;;26.10;1.00;;;;;;8302042;28;20444;-67
2022/07/13 09:11:01;;;;;;;1.02;0.35;;;26.20;1.00;;;;;;8307488;28;20187;-67
2022/07/13 09:15:06;;;;;;;1.00;0.63;;;26.00;1.00;;;;;;8302653;28;20214;-67
2022/07/13 09:19:08;;;;;;;0.80;0.47;;;26.20;1.00;;;;;;8331022;28;20198;-64
2022/07/13 09:23:09;;;;;;;0.50;0.32;;;26.20;1.00;;;;;;8306310;28;20201;-64
2022/07/13 09:27:11;;;;;;;0.60;0.40;;;26.30;1.00;;;;;;8302356;28;20191;-67
2022/07/13 09:31:13;;;;;;;1.73;0.50;;;26.30;1.00;;;;;;8329733;28;20245;-66
2022/07/13 09:35:14;;;;;;;2.47;0.50;;;26.30;1.00;;;;;;8329384;28;20218;-66
2022/07/13 09:39:15;;;;;;;0.70;0.47;;;26.40;1.00;;;;;;8301014;28;20229;-64
2022/07/13 09:47:35;;;;;;;0.90;0.63;;;26.20;1.00;;;;;;8297251;28;20217;-66
2022/07/13 09:51:36;;;;;;;0.85;0.50;;;26.20;1.00;;;;;;8300419;28;20211;-67
2022/07/13 09:55:36;;;;;;;0.40;0.40;;;26.20;1.00;;;;;;8334873;28;20225;-66
2022/07/13 09:59:38;;;;;;;0.73;0.60;;;26.10;1.00;;;;;;8306239;28;20187;-64
2022/07/13 10:03:40;;;;;;;1.38;0.60;;;26.10;1.00;;;;;;8305697;28;20278;-65
2022/07/13 10:07:43;;;;;;;2.83;0.65;;;26.30;1.00;;;;;;8332985;28;20198;-66
2022/07/13 10:11:44;;;;;;;0.88;0.43;;;26.50;1.00;;;;;;8330205;28;20194;-67
2022/07/13 10:15:46;;;;;;;2.28;0.60;;;26.70;1.00;;;;;;8298258;28;20222;-65
2022/07/13 10:20:00;;;;;;;0.77;0.55;;;27.10;1.00;;;;;;8302867;28;20194;-67
2022/07/13 10:24:01;;;;;;;1.30;0.52;;;27.30;1.00;;;;;;8296110;28;20192;-67
2022/07/13 10:28:05;;;;;;;4.05;0.73;;;27.50;1.00;;;;;;8297564;28;20199;-65
2022/07/13 10:32:07;;;;;;;1.73;0.70;;;27.40;1.00;;;;;;8338093;28;20187;-66
2022/07/13 10:36:08;;;;;;;0.80;0.70;;;27.50;1.00;;;;;;8337029;28;20530;-67
2022/07/13 10:40:13;;;;;;;1.40;0.80;;;27.50;1.00;;;;;;8344506;28;20187;-65
2022/07/13 10:44:30;;;;;;;1.48;0.70;;;27.40;1.00;;;;;;8302365;28;20282;-67
2022/07/13 10:48:34;;;;;;;1.00;0.70;;;27.50;1.00;;;;;;8339256;28;20201;-65
2022/07/13 10:52:44;;;;;;;1.42;0.70;;;27.80;1.00;;;;;;8306584;28;20218;-65
2022/07/13 10:57:12;;;;;;;1.15;0.85;;;28.20;1.00;;;;;;8310084;28;20302;-67
2022/07/13 11:01:33;;;;;;;0.85;0.85;;;28.30;1.00;;;;;;8305323;28;20191;-67
2022/07/13 11:05:35;;;;;;;1.83;1.00;;;28.30;1.00;;;;;;8302982;28;20198;-66
2022/07/13 11:09:38;;;;;;;1.42;1.02;;;28.50;1.00;;;;;;8308649;28;20225;-68
2022/07/13 11:13:40;;;;;;;5.20;1.25;;;28.60;1.00;;;;;;8310392;28;20191;-65
2022/07/13 11:17:41;;;;;;;2.20;0.68;;;28.80;1.00;;;;;;8311196;28;20186;-66
2022/07/13 11:22:06;;;;;;;3.10;0.85;;;28.70;1.00;;;;;;8306326;28;20187;-67
2022/07/13 11:26:37;;;;;;;1.13;0.80;;;28.70;1.00;;;;;;8315478;28;20219;-66
2022/07/13 11:30:43;;;;;;;0.82;0.70;;;28.50;1.00;;;;;;8335280;28;20194;-70
2022/07/13 11:34:46;;;;;;;1.40;0.88;;;28.40;1.00;;;;;;8306868;28;20250;-66
2022/07/13 11:38:47;;;;;;;2.25;0.65;;;28.10;1.00;;;;;;8302824;28;20194;-64
2022/07/13 11:42:53;;;;;;;3.13;0.70;;;28.20;1.00;;;;;;8303856;28;20182;-68
2022/07/13 11:46:56;;;;;;;0.80;0.60;;;28.60;1.00;;;;;;8306630;28;21257;-65
2022/07/13 11:50:57;;;;;;;0.93;0.80;;;29.00;1.00;;;;;;8307894;28;20397;-66
2022/07/13 11:55:00;;;;;;;0.80;0.70;;;28.90;1.00;;;;;;8337538;28;20218;-66
2022/07/13 11:59:02;;;;;;;2.70;0.75;;;29.30;1.00;;;;;;8340449;28;20281;-66
2022/07/13 12:03:02;;;;;;;1.92;0.65;;;29.20;1.00;;;;;;8302686;28;20248;-67
2022/07/13 12:07:17;;;;;;;3.22;0.63;;;29.60;1.00;;;;;;8303342;28;20314;-65
2022/07/13 12:11:19;;;;;;;5.07;0.63;;;29.50;1.00;;;;;;8338055;28;20198;-67
2022/07/13 12:15:20;;;;;;;0.95;0.68;;;29.50;1.00;;;;;;8302173;28;20202;-66
2022/07/13 12:19:20;;;;;;;3.05;0.70;;;30.00;1.00;;;;;;8338530;28;20194;-66
2022/07/13 12:23:21;;;;;;;0.70;0.60;;;30.30;1.00;;;;;;8333307;28;20219;-64
2022/07/13 12:27:26;;;;;;;1.63;0.80;;;30.60;1.00;;;;;;8334754;28;20189;-64
2022/07/13 12:31:27;;;;;;;1.00;0.38;;;30.80;1.00;;;;;;8304566;28;20190;-65
2022/07/13 12:35:30;;;;;;;2.70;0.63;;;31.10;99.90;;;;;;8307069;28;20212;-64
2022/07/13 12:39:35;;;;;;;1.02;0.65;;;30.20;99.90;;;;;;8335161;28;20227;-66
2022/07/13 12:43:36;;;;;;;3.28;0.68;;;30.00;99.90;;;;;;8338131;28;20190;-66
2022/07/13 12:47:37;;;;;;;2.40;0.57;;;30.10;99.90;;;;;;8302712;28;20246;-66
2022/07/13 12:51:52;;;;;;;2.05;0.85;;;29.80;99.90;;;;;;8313362;28;20210;-63
2022/07/13 12:55:57;;;;;;;2.15;0.55;;;29.80;99.90;;;;;;8306541;28;20317;-67
2022/07/13 13:00:11;;;;;;;1.05;0.50;;;30.40;99.90;;;;;;8335990;28;20269;-65
2022/07/13 13:04:12;;;;;;;0.70;0.40;;;30.80;99.90;;;;;;8302451;28;20190;-64
2022/07/13 13:08:13;;;;;;;0.80;0.50;;;30.90;99.90;;;;;;8334338;28;20203;-64
2022/07/13 13:12:13;;;;;;;0.73;0.50;;;30.60;99.90;;;;;;8315564;28;20516;-65
2022/07/13 13:16:14;;;;;;;2.47;0.32;;;30.40;99.90;;;;;;8304060;28;20218;-64
2022/07/13 13:20:15;;;;;;;1.17;0.88;;;30.80;99.90;;;;;;8334594;28;20289;-63
2022/07/13 13:24:16;;;;;;;0.70;0.43;;;31.20;99.90;;;;;;8304143;28;20197;-64
2022/07/13 13:28:17;;;;;;;0.98;0.55;;;31.50;99.90;;;;;;8334898;28;20262;-66
2022/07/13 13:32:18;;;;;;;1.08;0.40;;;30.90;99.90;;;;;;8329604;28;20198;-65
2022/07/13 13:36:19;;;;;;;1.40;0.50;;;30.80;99.90;;;;;;8302797;28;20218;-65
2022/07/13 13:40:20;;;;;;;1.10;0.60;;;30.90;99.90;;;;;;8300566;28;20183;-66
2022/07/13 13:44:21;;;;;;;0.77;0.47;;;30.10;99.90;;;;;;8334212;28;20186;-63
2022/07/13 13:48:22;;;;;;;2.92;0.73;;;29.60;99.90;;;;;;8334528;28;20225;-64
2022/07/13 13:52:22;;;;;;;1.77;0.60;;;29.80;99.90;;;;;;8333238;28;20214;-66
2022/07/13 13:56:24;;;;;;;1.30;0.60;;;29.60;99.90;;;;;;8302567;28;20217;-65
2022/07/13 14:00:25;;;;;;;1.00;0.60;;;29.40;99.90;;;;;;8303287;28;20191;-65
2022/07/13 14:04:26;;;;;;;3.20;0.63;;;29.60;99.90;;;;;;8331164;28;20190;-64
2022/07/13 14:08:26;;;;;;;1.77;0.70;;;30.10;99.90;;;;;;8308709;28;20202;-67
2022/07/13 14:12:27;;;;;;;3.20;0.63;;;30.10;99.90;;;;;;8336973;28;20186;-65
2022/07/13 14:16:28;;;;;;;1.48;0.50;;;30.30;99.90;;;;;;8312866;28;20264;-65
2022/07/13 14:20:29;;;;;;;2.22;0.65;;;30.20;99.90;;;;;;8325600;28;20179;-62
2022/07/13 14:24:30;;;;;;;1.30;0.60;;;30.30;99.90;;;;;;8337524;28;20277;-65
2022/07/13 14:28:31;;;;;;;0.65;0.60;;;30.50;99.90;;;;;;8311130;28;20186;-64
2022/07/13 14:32:32;;;;;;;1.38;0.65;;;30.90;99.90;;;;;;8309180;28;20183;-65
2022/07/13 14:36:33;;;;;;;3.50;0.60;;;31.00;99.90;;;;;;8342054;28;20284;-73
2022/07/13 14:40:34;;;;;;;0.77;0.60;;;30.80;99.90;;;;;;8318450;28;20187;-65
2022/07/13 14:44:35;;;;;;;2.65;0.60;;;30.60;99.90;;;;;;8312653;28;20311;-65
2022/07/13 14:48:36;;;;;;;0.70;0.50;;;30.60;99.90;;;;;;8314479;28;20197;-65
2022/07/13 14:52:37;;;;;;;0.70;0.60;;;30.20;99.90;;;;;;8304381;28;20207;-66
2022/07/13 14:56:38;;;;;;;0.98;0.40;;;29.70;99.90;;;;;;8309395;28;20210;-63
2022/07/13 15:00:39;;;;;;;2.45;0.55;;;29.50;99.90;;;;;;8307934;28;20190;-65
2022/07/13 15:04:40;;;;;;;0.50;0.43;;;29.60;99.90;;;;;;8303185;28;20195;-64
2022/07/13 15:08:41;;;;;;;0.95;0.57;;;29.70;99.90;;;;;;8309938;28;20202;-67
2022/07/13 15:12:42;;;;;;;0.80;0.50;;;30.20;99.90;;;;;;8308697;28;20208;-65
2022/07/13 15:16:44;;;;;;;0.85;0.63;;;30.40;99.90;;;;;;8299221;28;20217;-66
2022/07/13 15:20:44;;;;;;;1.67;0.38;;;30.10;99.90;;;;;;8339583;28;20179;-65
2022/07/13 15:24:46;;;;;;;0.80;0.50;;;29.50;99.90;;;;;;8306477;28;20198;-65
2022/07/13 15:28:46;;;;;;;1.30;0.57;;;29.30;99.90;;;;;;8305137;28;20306;-64
2022/07/13 15:32:47;;;;;;;1.88;0.88;;;29.30;99.90;;;;;;8298797;28;20245;-65
2022/07/13 15:36:48;;;;;;;1.23;0.40;;;29.40;99.90;;;;;;8304162;28;20221;-63
2022/07/13 15:45:08;;;;;;;2.25;0.47;;;29.00;99.90;;;;;;8307367;28;20193;-62
2022/07/13 15:49:09;;;;;;;1.30;0.70;;;28.80;99.90;;;;;;8307859;28;20221;-62
2022/07/13 15:53:10;;;;;;;2.33;0.63;;;28.80;99.90;;;;;;8340999;28;20210;-62
2022/07/13 15:57:11;;;;;;;0.93;0.47;;;29.00;99.90;;;;;;8303252;28;20222;-69
2022/07/13 16:01:12;;;;;;;0.80;0.40;;;29.20;99.90;;;;;;8337432;28;20182;-64
2022/07/13 16:05:13;;;;;;;0.80;0.50;;;29.10;99.90;;;;;;8332912;28;20190;-62
2022/07/13 16:09:14;;;;;;;2.47;0.70;;;29.10;99.90;;;;;;8334245;28;20203;-64
2022/07/13 16:13:14;;;;;;;2.55;0.70;;;28.90;99.90;;;;;;8336091;28;20239;-64
2022/07/13 16:17:15;;;;;;;0.95;0.57;;;28.80;99.90;;;;;;8310951;28;20631;-63
2022/07/13 16:21:16;;;;;;;1.58;0.80;;;28.60;99.90;;;;;;8330430;28;20255;-64
2022/07/13 16:25:17;;;;;;;2.67;0.47;;;28.60;99.90;;;;;;8341576;28;20244;-64
2022/07/13 16:29:18;;;;;;;4.97;0.50;;;28.70;99.90;;;;;;8337312;28;20276;-65
2022/07/13 16:33:19;;;;;;;2.67;0.60;;;28.80;99.90;;;;;;8341409;28;20269;-63
2022/07/13 16:37:20;;;;;;;1.30;0.50;;;28.80;99.90;;;;;;8309096;28;20264;-62
2022/07/13 16:41:21;;;;;;;5.85;0.77;;;28.60;99.90;;;;;;8311218;28;20213;-63
2022/07/13 16:45:21;;;;;;;0.73;0.65;;;28.60;99.90;;;;;;8309190;28;20187;-64
2022/07/13 16:49:22;;;;;;;1.52;0.60;;;28.50;99.90;;;;;;8339044;28;20219;-63
2022/07/13 16:53:23;;;;;;;1.33;0.63;;;28.40;99.90;;;;;;8334912;28;20230;-65
2022/07/13 16:57:24;;;;;;;1.48;0.55;;;28.40;99.90;;;;;;8339744;28;20317;-66
2022/07/13 17:01:24;;;;;;;2.08;0.68;;;28.20;99.90;;;;;;8336355;28;20190;-66
2022/07/13 17:05:25;;;;;;;1.98;1.02;;;28.10;99.90;;;;;;8298758;28;20265;-66
2022/07/13 17:09:26;;;;;;;1.98;0.70;;;27.90;99.90;;;;;;8307821;28;20190;-64
2022/07/13 17:13:27;;;;;;;0.82;0.60;;;27.90;99.90;;;;;;8301169;28;20190;-64
2022/07/13 17:17:28;;;;;;;0.70;0.50;;;27.80;99.90;;;;;;8340726;28;20210;-66
2022/07/13 17:21:29;;;;;;;1.98;0.70;;;27.80;99.90;;;;;;8338933;28;20279;-64
2022/07/13 17:25:30;;;;;;;1.98;0.57;;;27.70;99.90;;;;;;8302661;28;20249;-63
2022/07/13 17:29:32;;;;;;;3.03;0.32;;;27.70;99.90;;;;;;8303365;28;20194;-64
2022/07/13 17:33:33;;;;;;;4.13;0.60;;;27.60;99.90;;;;;;8302663;28;20201;-64
2022/07/13 17:37:34;;;;;;;1.85;0.45;;;27.60;99.90;;;;;;8306150;28;20210;-65
2022/07/13 17:41:35;;;;;;;2.47;0.60;;;27.50;99.90;;;;;;8317520;28;20198;-66
2022/07/13 17:45:36;;;;;;;3.75;0.60;;;27.40;99.90;;;;;;8307481;28;20201;-64
2022/07/13 17:49:36;;;;;;;0.90;0.52;;;27.40;99.90;;;;;;8307952;28;20199;-66
2022/07/13 17:53:37;;;;;;;3.63;0.63;;;27.30;99.90;;;;;;8300840;28;20300;-65
2022/07/13 17:57:38;;;;;;;0.80;0.47;;;27.20;99.90;;;;;;8312827;28;20221;-64
2022/07/13 18:01:39;;;;;;;2.00;0.40;;;27.10;99.90;;;;;;8305521;28;20233;-63
2022/07/13 18:05:40;;;;;;;1.70;0.70;;;27.10;99.90;;;;;;8299972;28;20199;-67
2022/07/13 18:09:41;;;;;;;1.07;0.50;;;27.00;99.90;;;;;;8328064;28;20195;-64
2022/07/13 18:13:42;;;;;;;1.00;0.40;;;26.90;99.90;;;;;;8300334;28;20220;-67
2022/07/13 18:17:43;;;;;;;0.67;0.50;;;26.80;99.90;;;;;;8300996;28;20226;-65
2022/07/13 18:21:44;;;;;;;1.47;0.50;;;26.80;99.90;;;;;;8294064;28;20310;-72
2022/07/13 18:25:45;;;;;;;2.63;0.77;;;26.70;99.90;;;;;;8328049;28;20221;-63
2022/07/13 18:29:45;;;;;;;0.90;0.37;;;26.60;99.90;;;;;;8334425;28;20201;-63
2022/07/13 18:33:47;;;;;;;1.03;0.40;;;26.50;99.90;;;;;;8332257;28;20202;-62
2022/07/13 18:37:48;;;;;;;1.03;0.60;;;26.40;99.90;;;;;;8297499;28;20219;-65
2022/07/13 18:41:49;;;;;;;1.03;0.37;;;26.30;99.90;;;;;;8299455;28;20210;-66
2022/07/13 18:45:50;;;;;;;0.77;0.60;;;26.10;99.90;;;;;;8300231;28;20190;-62
2022/07/13 18:49:51;;;;;;;1.60;0.60;;;26.00;99.90;;;;;;8306357;28;20193;-63
2022/07/13 18:53:52;;;;;;;1.73;0.60;;;25.80;1.00;;;;;;8302311;28;20305;-64
2022/07/13 18:57:53;;;;;;;0.80;0.40;;;25.70;1.00;;;;;;8334103;28;20225;-64
2022/07/13 19:01:54;;;;;;;1.33;0.60;;;25.50;1.00;;;;;;8333019;28;20188;-62
2022/07/13 19:05:55;;;;;;;0.90;0.40;;;25.30;1.00;;;;;;8334374;28;20210;-62
2022/07/13 19:09:56;;;;;;;0.87;0.60;;;25.00;1.00;;;;;;8342921;28;20240;-62
2022/07/13 19:13:57;;;;;;;0.30;0.23;;;24.70;1.00;;;;;;8308666;28;20194;-62
2022/07/13 19:17:58;;;;;;;1.17;0.53;;;24.50;1.00;;;;;;8306679;28;20213;-63
2022/07/13 19:21:59;;;;;;;0.80;0.70;;;24.30;1.00;;;;;;8301162;28;20325;-62
2022/07/13 19:30:19;;;;;;;1.07;0.60;;;24.00;1.00;;;;;;8298602;28;20210;-64
2022/07/13 19:34:20;;;;;;;1.40;0.70;;;23.80;1.00;;;;;;8334998;28;20232;-62
2022/07/13 19:38:20;;;;;;;4.87;1.10;;;23.70;1.00;;;;;;8302070;28;20197;-64
2022/07/13 19:42:21;;;;;;;3.50;1.07;;;23.60;1.00;;;;;;8302565;28;20217;-63
2022/07/13 19:46:22;;;;;;;1.53;0.80;;;23.50;1.00;;;;;;8331949;28;20997;-63
2022/07/13 19:50:23;;;;;;;1.87;1.17;;;23.50;1.00;;;;;;8306241;28;20238;-66
2022/07/13 19:54:25;;;;;;;3.23;1.37;;;23.50;1.00;;;;;;8311667;28;20254;-62
2022/07/13 19:58:25;;;;;;;1.83;1.17;;;23.50;1.00;;;;;;8311599;28;20195;-63
2022/07/13 20:02:26;;;;;;;2.67;1.13;;;23.50;1.00;;;;;;8338273;28;20198;-65
2022/07/13 20:06:27;;;;;;;4.03;1.23;;;23.50;1.00;;;;;;8332079;28;20214;-65
2022/07/13 20:10:28;;;;;;;2.97;1.03;;;23.50;1.00;;;;;;8336187;28;20193;-61
2022/07/13 20:14:30;;;;;;;3.13;1.27;;;23.50;1.00;;;;;;8310243;28;20215;-61
2022/07/13 20:18:31;;;;;;;2.50;1.20;;;23.50;1.00;;;;;;8337469;28;20274;-63
2022/07/13 20:22:32;;;;;;;2.60;1.40;;;23.50;1.00;;;;;;8310428;28;20190;-62
2022/07/13 20:26:35;;;;;;;3.83;1.33;;;23.50;1.00;;;;;;8305403;28;20221;-66
2022/07/13 20:30:36;;;;;;;2.10;1.10;;;23.50;1.00;;;;;;8304493;28;20250;-64
2022/07/13 20:34:37;;;;;;;2.30;1.10;;;23.50;1.00;;;;;;8312937;28;20268;-63
2022/07/13 20:38:38;;;;;;;1.53;0.90;;;23.50;1.00;;;;;;8298723;28;20611;-65
2022/07/13 20:42:39;;;;;;;1.10;0.83;;;23.50;1.00;;;;;;8302619;28;20387;-61
2022/07/13 20:46:40;;;;;;;2.07;1.00;;;23.50;1.00;;;;;;8304920;28;20180;-72
2022/07/13 20:50:41;;;;;;;3.47;0.93;;;23.50;1.00;;;;;;8337874;28;20217;-62
2022/07/13 20:54:41;;;;;;;5.43;1.00;;;23.50;1.00;;;;;;8333578;28;20280;-64
2022/07/13 20:58:42;;;;;;;4.70;1.27;;;23.50;1.00;;;;;;8312654;28;20324;-63
2022/07/13 21:02:43;;;;;;;3.10;1.33;;;23.50;1.00;;;;;;8337524;28;20486;-66
2022/07/13 21:06:47;;;;;;;2.20;1.00;;;23.40;1.00;;;;;;8303880;28;20324;-62
2022/07/13 21:10:48;;;;;;;4.30;1.30;;;23.40;1.00;;;;;;8309699;28;20629;-64
2022/07/13 21:14:48;;;;;;;2.87;1.10;;;23.40;1.00;;;;;;8303896;28;20535;-63
2022/07/13 21:18:50;;;;;;;2.03;1.03;;;23.40;1.00;;;;;;8305199;28;20248;-65
2022/07/13 21:22:51;;;;;;;2.07;1.50;;;23.30;1.00;;;;;;8302232;28;20182;-64